createdAt,value
2019-03-13T00:00:39.963Z,75.40
2019-03-13T00:03:13.167Z,77.30
2019-03-13T00:05:45.886Z,79.30
2019-03-13T00:08:18.727Z,80.60
2019-03-13T00:10:51.564Z,82.10
2019-03-13T00:13:24.925Z,81.90
2019-03-13T00:15:57.883Z,82.30
2019-03-13T00:18:31.284Z,83.30
2019-03-13T00:21:04.143Z,85.40
2019-03-13T00:23:36.983Z,86.30
2019-03-13T00:26:09.883Z,86.50
2019-03-13T00:28:42.704Z,85.50
2019-03-13T00:31:15.803Z,84.80
2019-03-13T00:33:48.623Z,82.80
2019-03-13T00:36:22.203Z,80.60
2019-03-13T00:38:55.283Z,83.00
2019-03-13T00:41:28.183Z,83.40
2019-03-13T00:44:01.145Z,82.40
2019-03-13T00:46:37.683Z,83.60
2019-03-13T00:49:10.523Z,84.50
2019-03-13T00:51:45.968Z,84.70
2019-03-13T00:54:18.893Z,84.30
2019-03-13T00:56:51.723Z,83.80
2019-03-13T00:59:24.714Z,83.70
2019-03-13T01:01:59.043Z,84.80
2019-03-13T01:04:36.163Z,83.80
2019-03-13T01:07:09.003Z,83.90
2019-03-13T01:09:41.764Z,82.30
2019-03-13T01:12:14.624Z,82.60
2019-03-13T01:14:47.543Z,83.50
2019-03-13T01:17:20.443Z,84.70
2019-03-13T01:19:53.603Z,83.40
2019-03-13T01:22:28.383Z,81.70
2019-03-13T01:25:01.324Z,82.40
2019-03-13T01:27:34.543Z,83.70
2019-03-13T01:30:07.400Z,82.70
2019-03-13T01:32:44.523Z,84.90
2019-03-13T01:35:19.004Z,84.60
2019-03-13T01:37:51.886Z,85.50
2019-03-13T01:40:25.009Z,85.80
2019-03-13T01:42:57.864Z,85.90
2019-03-13T01:45:30.685Z,84.40
2019-03-13T01:48:03.423Z,84.50
2019-03-13T01:50:36.665Z,85.10
2019-03-13T01:53:09.965Z,83.50
2019-03-13T01:55:42.783Z,82.60
2019-03-13T01:58:15.685Z,82.10
2019-03-13T02:00:48.445Z,81.50
2019-03-13T02:03:21.284Z,81.40
2019-03-13T02:05:54.503Z,80.20
2019-03-13T02:08:27.623Z,79.90
2019-03-13T02:11:01.084Z,80.00
2019-03-13T02:13:33.984Z,80.90
2019-03-13T02:16:07.046Z,82.70
2019-03-13T02:18:39.883Z,83.50
2019-03-13T02:21:12.643Z,83.70
2019-03-13T02:23:45.923Z,84.70
2019-03-13T02:26:19.583Z,84.70
2019-03-13T02:28:52.444Z,85.70
2019-03-13T02:31:25.263Z,86.10
2019-03-13T02:33:58.726Z,86.40
2019-03-13T02:36:31.564Z,86.40
2019-03-13T02:39:04.918Z,85.90
2019-03-13T02:41:38.365Z,85.20
2019-03-13T02:44:12.045Z,84.70
2019-03-13T02:46:45.005Z,85.70
2019-03-13T02:49:17.872Z,83.60
2019-03-13T02:51:50.708Z,83.40
2019-03-13T02:54:23.584Z,83.00
2019-03-13T02:56:56.326Z,82.70
2019-03-13T02:59:29.246Z,84.20
2019-03-13T03:02:19.086Z,84.70
2019-03-13T03:04:51.868Z,84.00
2019-03-13T03:07:24.923Z,84.80
2019-03-13T03:09:57.805Z,83.50
2019-03-13T03:12:30.605Z,85.40
2019-03-13T03:15:03.432Z,84.40
2019-03-13T03:17:36.606Z,83.80
2019-03-13T03:20:09.844Z,84.00
2019-03-13T03:22:42.929Z,84.70
2019-03-13T03:25:16.384Z,85.40
2019-03-13T03:27:49.321Z,84.80
2019-03-13T03:30:22.394Z,83.00
2019-03-13T03:32:55.808Z,83.30
2019-03-13T03:35:28.984Z,82.90
2019-03-13T03:38:01.807Z,82.20
2019-03-13T03:40:34.685Z,82.90
2019-03-13T03:43:07.604Z,82.80
2019-03-13T03:45:40.501Z,83.20
2019-03-13T03:48:13.585Z,85.00
2019-03-13T03:50:47.105Z,84.30
2019-03-13T03:53:20.324Z,85.00
2019-03-13T03:55:53.165Z,85.50
2019-03-13T03:58:29.457Z,86.40
2019-03-13T04:01:00.630Z,83.80
2019-03-13T04:03:34.305Z,83.40
2019-03-13T04:06:07.845Z,84.10
2019-03-13T04:08:40.968Z,82.60
2019-03-13T04:11:13.904Z,83.20
2019-03-13T04:13:46.704Z,82.60
2019-03-13T04:16:19.585Z,83.00
2019-03-13T04:18:52.804Z,82.40
2019-03-13T04:21:26.167Z,82.30
2019-03-13T04:23:58.923Z,81.70
2019-03-13T04:26:32.615Z,81.00
2019-03-13T04:29:05.946Z,80.60
2019-03-13T04:31:38.767Z,81.20
2019-03-13T04:34:11.844Z,81.10
2019-03-13T04:36:44.944Z,81.60
2019-03-13T04:39:17.765Z,81.50
2019-03-13T04:41:50.585Z,82.70
2019-03-13T04:44:23.505Z,83.50
2019-03-13T04:46:56.464Z,82.40
2019-03-13T04:49:29.430Z,82.50
2019-03-13T04:52:02.267Z,82.80
2019-03-13T04:54:35.104Z,84.60
2019-03-13T04:57:08.243Z,82.30
2019-03-13T04:59:41.165Z,82.00
2019-03-13T05:02:14.084Z,81.10
2019-03-13T05:04:46.944Z,80.40
2019-03-13T05:07:19.964Z,80.70
2019-03-13T05:10:11.744Z,81.70
2019-03-13T05:12:44.564Z,80.80
2019-03-13T05:15:17.444Z,80.60
2019-03-13T05:17:50.284Z,82.40
2019-03-13T05:20:23.363Z,83.30
2019-03-13T05:22:56.266Z,82.80
2019-03-13T05:25:29.083Z,81.80
2019-03-13T05:28:01.942Z,81.30
2019-03-13T05:30:34.812Z,83.10
2019-03-13T05:33:07.803Z,84.90
2019-03-13T05:35:41.124Z,83.00
2019-03-13T05:38:14.227Z,82.40
2019-03-13T05:40:47.147Z,81.30
2019-03-13T05:43:20.106Z,81.80
2019-03-13T05:45:53.346Z,82.20
2019-03-13T05:48:26.244Z,83.60
2019-03-13T05:50:59.026Z,83.60
2019-03-13T05:53:32.004Z,83.10
2019-03-13T05:56:04.803Z,81.50
2019-03-13T05:58:37.585Z,81.00
2019-03-13T06:01:10.893Z,80.10
2019-03-13T06:03:43.684Z,81.50
2019-03-13T06:06:16.683Z,80.80
2019-03-13T06:08:49.584Z,81.80
2019-03-13T06:11:22.371Z,81.90
2019-03-13T06:13:55.470Z,81.90
2019-03-13T06:16:28.243Z,81.60
2019-03-13T06:19:01.144Z,83.10
2019-03-13T06:21:34.204Z,82.10
2019-03-13T06:24:07.024Z,81.50
2019-03-13T06:26:39.883Z,80.90
2019-03-13T06:29:12.763Z,82.70
2019-03-13T06:31:46.248Z,82.40
2019-03-13T06:34:18.966Z,83.70
2019-03-13T06:36:52.444Z,83.00
2019-03-13T06:39:25.254Z,84.10
2019-03-13T06:41:57.966Z,83.70
2019-03-13T06:44:30.773Z,82.10
2019-03-13T06:47:03.386Z,81.80
2019-03-13T06:49:36.367Z,81.80
2019-03-13T06:52:09.188Z,80.40
2019-03-13T06:54:41.988Z,78.90
2019-03-13T06:57:14.808Z,77.20
2019-03-13T07:00:05.749Z,76.80
2019-03-13T07:02:40.074Z,78.30
2019-03-13T07:05:14.618Z,77.60
2019-03-13T07:07:50.388Z,75.80
2019-03-13T07:10:24.867Z,75.80
2019-03-13T07:13:14.526Z,75.70
2019-03-13T07:15:49.008Z,75.30
2019-03-13T07:18:23.367Z,73.30
2019-03-13T07:21:07.124Z,74.90
2019-03-13T07:23:41.704Z,74.00
2019-03-13T07:26:18.908Z,72.70
2019-03-13T07:29:11.578Z,70.50
2019-03-13T07:31:35.548Z,70.00
2019-03-13T07:34:09.835Z,72.70
2019-03-13T07:36:48.346Z,68.40
2019-03-13T07:39:38.006Z,74.50
2019-03-13T07:42:28.746Z,60.70
2019-03-13T07:45:12.284Z,66.30
2019-03-13T07:47:53.204Z,65.80
2019-03-13T07:50:45.985Z,65.80
2019-03-13T07:53:29.063Z,64.70
2019-03-13T07:56:09.225Z,60.40
2019-03-13T07:59:02.073Z,58.50
2019-03-13T08:01:52.284Z,57.50
2019-03-13T08:04:45.884Z,58.20
2019-03-13T08:07:20.361Z,63.60
2019-03-13T08:09:54.764Z,64.70
2019-03-13T08:12:45.647Z,67.20
2019-03-13T08:15:36.048Z,66.70
2019-03-13T08:18:19.207Z,65.30
2019-03-13T08:20:59.477Z,66.20
2019-03-13T08:23:36.452Z,64.30
2019-03-13T08:26:16.729Z,64.80
2019-03-13T08:28:53.569Z,66.70
2019-03-13T08:31:36.477Z,67.10
2019-03-13T08:34:26.889Z,67.50
2019-03-13T08:37:04.072Z,68.80
2019-03-13T08:39:47.625Z,69.00
2019-03-13T08:42:40.444Z,68.80
2019-03-13T08:45:13.051Z,67.00
2019-03-13T08:47:50.484Z,66.70
2019-03-13T08:50:32.064Z,66.10
2019-03-13T08:53:12.786Z,65.60
2019-03-13T08:56:03.424Z,64.20
2019-03-13T08:58:52.804Z,64.50
2019-03-13T09:01:45.045Z,65.20
2019-03-13T09:04:22.235Z,59.80
2019-03-13T09:07:12.365Z,76.30
2019-03-13T09:10:02.486Z,80.50
2019-03-13T09:12:34.906Z,85.60
2019-03-13T09:15:25.764Z,91.20
2019-03-13T09:18:00.024Z,93.30
2019-03-13T09:20:50.763Z,94.60
2019-03-13T09:23:27.745Z,96.20
2019-03-13T09:26:02.098Z,95.20
2019-03-13T09:28:48.505Z,96.30
2019-03-13T09:31:21.384Z,98.00
2019-03-13T09:33:55.651Z,98.70
2019-03-13T09:36:35.984Z,99.80
2019-03-13T09:39:16.467Z,99.70
2019-03-13T09:41:50.928Z,99.70
2019-03-13T09:44:25.665Z,99.60
2019-03-13T09:47:02.690Z,99.80
2019-03-13T09:49:43.063Z,99.70
2019-03-13T09:52:23.363Z,99.30
2019-03-13T09:55:00.374Z,98.40
2019-03-13T09:57:41.650Z,98.90
2019-03-13T10:00:26.203Z,99.40
2019-03-13T10:03:06.523Z,99.90
2019-03-13T10:05:42.067Z,99.90
2019-03-13T10:08:16.506Z,99.90
2019-03-13T10:10:53.803Z,99.90
2019-03-13T10:13:44.364Z,99.90
2019-03-13T10:16:34.924Z,99.90
2019-03-13T10:19:11.980Z,99.90
2019-03-13T10:21:52.043Z,99.90
2019-03-13T10:24:29.209Z,99.90
2019-03-13T10:27:21.877Z,99.90
2019-03-13T10:29:59.185Z,99.90
2019-03-13T10:32:50.486Z,99.90
2019-03-13T10:35:22.944Z,99.90
2019-03-13T10:37:55.465Z,99.90
2019-03-13T10:40:38.687Z,99.90
2019-03-13T10:43:25.752Z,99.90
2019-03-13T10:46:02.985Z,99.90
2019-03-13T10:48:37.408Z,99.90
2019-03-13T10:51:14.524Z,99.90
2019-03-13T10:53:49.163Z,99.90
2019-03-13T10:56:26.684Z,99.90
2019-03-13T10:59:06.823Z,99.90
2019-03-13T11:01:51.471Z,99.90
2019-03-13T11:04:26.064Z,99.90
2019-03-13T11:07:00.464Z,99.90
2019-03-13T11:29:13.863Z,99.90
2019-03-13T11:31:51.313Z,99.90
2019-03-13T11:34:24.012Z,99.90
2019-03-13T11:36:58.517Z,99.90
2019-03-13T11:39:35.966Z,99.90
2019-03-13T11:42:16.524Z,99.90
2019-03-13T11:44:54.053Z,99.90
2019-03-13T11:47:42.212Z,99.90
2019-03-13T11:50:11.113Z,99.90
2019-03-13T11:53:02.123Z,99.90
2019-03-13T11:55:48.797Z,99.90
2019-03-13T11:58:23.254Z,99.90
2019-03-13T12:01:09.397Z,99.90
2019-03-13T12:04:00.004Z,99.90
2019-03-13T12:06:43.704Z,99.90
2019-03-13T12:09:30.054Z,99.90
2019-03-13T12:12:07.477Z,99.90
2019-03-13T12:14:51.273Z,99.90
2019-03-13T12:17:25.713Z,99.90
2019-03-13T12:20:15.352Z,99.90
2019-03-13T12:22:52.973Z,99.90
2019-03-13T12:25:27.454Z,99.90
2019-03-13T12:28:07.877Z,99.90
2019-03-13T12:30:58.312Z,99.90
2019-03-13T12:33:47.802Z,99.90
2019-03-13T12:36:22.223Z,99.90
2019-03-13T12:39:11.873Z,99.90
2019-03-13T12:41:50.783Z,99.90
2019-03-13T12:44:38.644Z,99.90
2019-03-13T12:47:25.313Z,99.90
2019-03-13T12:50:08.585Z,99.90
2019-03-13T12:52:49.373Z,99.90
2019-03-13T12:55:39.897Z,99.90
2019-03-13T12:58:14.283Z,99.90
2019-03-13T13:00:53.033Z,99.90
2019-03-13T13:03:27.573Z,99.90
2019-03-13T13:06:06.076Z,99.90
2019-03-13T13:08:44.202Z,99.90
2019-03-13T13:11:34.681Z,99.90
2019-03-13T13:14:17.915Z,99.90
2019-03-13T13:16:50.587Z,99.90
2019-03-13T13:19:23.540Z,99.90
2019-03-13T13:21:58.108Z,99.90
2019-03-13T13:24:30.891Z,99.90
2019-03-13T13:27:04.758Z,99.90
2019-03-13T13:29:37.802Z,99.90
2019-03-13T13:32:10.633Z,99.90
2019-03-13T13:34:43.503Z,99.90
2019-03-13T13:37:16.383Z,99.90
2019-03-13T13:39:49.402Z,99.90
2019-03-13T13:42:22.273Z,99.90
2019-03-13T13:44:55.263Z,99.90
2019-03-13T13:47:28.133Z,99.90
2019-03-13T13:50:01.215Z,99.90
2019-03-13T13:52:34.027Z,99.90
2019-03-13T13:55:06.735Z,99.90
2019-03-13T13:57:39.673Z,99.90
2019-03-13T14:00:12.562Z,99.90
2019-03-13T14:02:45.453Z,99.90
2019-03-13T14:05:18.382Z,99.90
2019-03-13T14:07:51.253Z,99.90
2019-03-13T14:10:24.133Z,99.90
2019-03-13T14:12:57.062Z,99.90
2019-03-13T14:15:29.892Z,99.90
2019-03-13T14:18:02.864Z,99.90
2019-03-13T14:20:35.766Z,99.90
2019-03-13T14:23:08.526Z,99.90
2019-03-13T14:25:41.522Z,99.90
2019-03-13T14:28:14.383Z,99.90
2019-03-13T14:30:47.333Z,99.90
2019-03-13T14:33:20.235Z,99.90
2019-03-13T14:35:53.104Z,99.90
2019-03-13T14:38:26.014Z,99.90
2019-03-13T14:40:58.913Z,99.90
2019-03-13T14:43:31.769Z,99.90
2019-03-13T14:46:05.069Z,99.90
2019-03-13T14:48:37.902Z,99.90
2019-03-13T14:51:10.751Z,99.90
2019-03-13T14:53:43.712Z,99.90
2019-03-13T14:56:16.593Z,99.90
2019-03-13T14:58:49.674Z,99.90
2019-03-13T15:01:22.664Z,99.90
2019-03-13T15:03:55.684Z,99.90
2019-03-13T15:06:28.578Z,99.90
2019-03-13T15:09:01.655Z,99.90
2019-03-13T15:11:34.553Z,99.90
2019-03-13T15:14:07.202Z,99.90
2019-03-13T15:16:40.133Z,99.90
2019-03-13T15:19:12.973Z,99.90
2019-03-13T15:21:45.873Z,99.90
2019-03-13T15:24:18.756Z,99.90
2019-03-13T15:26:51.643Z,99.90
2019-03-13T15:29:24.554Z,99.90
2019-03-13T15:31:57.463Z,99.90
2019-03-13T15:34:30.316Z,99.90
2019-03-13T15:37:03.950Z,99.90
2019-03-13T15:39:36.882Z,99.90
2019-03-13T15:42:09.774Z,99.90
2019-03-13T15:44:42.674Z,99.90
2019-03-13T15:47:15.563Z,99.90
2019-03-13T15:49:48.833Z,99.90
2019-03-13T15:52:21.722Z,99.90
2019-03-13T15:54:54.763Z,99.90
2019-03-13T15:57:27.623Z,99.90
2019-03-13T16:00:00.605Z,99.90
2019-03-13T16:02:33.402Z,99.90
2019-03-13T16:05:06.104Z,99.90
2019-03-13T16:07:39.013Z,99.90
2019-03-13T16:10:11.864Z,99.90
2019-03-13T16:12:44.705Z,99.90
2019-03-13T16:15:17.605Z,99.90
2019-03-13T16:17:50.493Z,99.90
2019-03-13T16:20:23.344Z,99.90
2019-03-13T16:23:00.817Z,99.90
2019-03-13T16:25:33.734Z,99.90
2019-03-13T16:28:06.424Z,99.90
2019-03-13T16:30:40.893Z,99.90
2019-03-13T16:33:13.755Z,99.90
2019-03-13T16:35:46.783Z,99.90
2019-03-13T16:38:19.663Z,99.90
2019-03-13T16:40:52.583Z,99.90
2019-03-13T16:43:25.483Z,99.90
2019-03-13T16:45:58.373Z,99.90
2019-03-13T16:48:31.286Z,99.90
2019-03-13T16:51:05.303Z,99.90
2019-03-13T16:53:38.214Z,99.90
2019-03-13T16:56:11.124Z,99.90
2019-03-13T16:58:43.984Z,99.90
2019-03-13T17:01:16.934Z,99.90
2019-03-13T17:03:49.910Z,99.90
2019-03-13T17:06:22.793Z,99.90
2019-03-13T17:08:55.784Z,99.90
2019-03-13T17:11:28.695Z,99.90
2019-03-13T17:14:01.664Z,99.90
2019-03-13T17:16:34.722Z,99.90
2019-03-13T17:19:07.396Z,99.90
2019-03-13T17:21:40.343Z,99.90
2019-03-13T17:24:13.239Z,99.90
2019-03-13T17:26:46.293Z,99.90
2019-03-13T17:29:19.564Z,99.90
2019-03-13T17:31:52.557Z,99.90
2019-03-13T17:34:25.621Z,99.90
2019-03-13T17:36:58.582Z,99.90
2019-03-13T17:39:33.739Z,99.90
2019-03-13T17:42:06.139Z,99.90
2019-03-13T17:44:39.143Z,99.90
2019-03-13T17:47:12.043Z,99.90
2019-03-13T17:49:45.194Z,99.90
2019-03-13T17:52:18.033Z,99.90
2019-03-13T17:54:51.084Z,99.90
2019-03-13T17:57:23.983Z,99.90
2019-03-13T17:59:56.609Z,99.90
2019-03-13T18:02:29.734Z,99.90
2019-03-13T18:05:02.724Z,99.90
2019-03-13T18:07:35.623Z,99.90
2019-03-13T18:10:08.375Z,99.90
2019-03-13T18:12:41.443Z,99.90
2019-03-13T18:15:14.276Z,99.90
2019-03-13T18:17:47.272Z,99.90
2019-03-13T18:20:20.073Z,99.90
2019-03-13T18:22:53.004Z,99.90
2019-03-13T18:25:25.853Z,99.90
2019-03-13T18:27:58.933Z,99.90
2019-03-13T18:30:31.923Z,99.90
2019-03-13T18:33:06.031Z,99.90
2019-03-13T18:35:39.195Z,99.90
2019-03-13T18:38:13.103Z,99.90
2019-03-13T18:40:46.083Z,99.90
2019-03-13T18:43:18.844Z,99.90
2019-03-13T18:45:54.986Z,99.90
2019-03-13T18:48:27.954Z,99.90
2019-03-13T18:51:00.975Z,99.90
2019-03-13T18:53:33.973Z,99.90
2019-03-13T18:56:06.575Z,99.90
2019-03-13T18:58:39.553Z,99.90
2019-03-13T19:01:12.363Z,99.90
2019-03-13T19:03:45.333Z,99.90
2019-03-13T19:06:18.245Z,99.90
2019-03-13T19:08:51.143Z,99.90
2019-03-13T19:11:24.073Z,99.90
2019-03-13T19:13:58.158Z,99.90
2019-03-13T19:16:31.524Z,99.90
2019-03-13T19:19:05.439Z,99.90
2019-03-13T19:21:38.474Z,99.90
2019-03-13T19:24:11.374Z,99.90
2019-03-13T19:26:44.464Z,99.90
2019-03-13T19:29:17.535Z,99.90
2019-03-13T19:31:50.576Z,99.90
2019-03-13T19:34:23.438Z,99.90
2019-03-13T19:36:56.403Z,99.90
2019-03-13T19:39:32.024Z,99.90
2019-03-13T19:42:04.853Z,99.90
2019-03-13T19:44:37.784Z,99.90
2019-03-13T19:47:10.533Z,99.90
2019-03-13T19:49:43.653Z,99.90
2019-03-13T19:52:16.546Z,99.90
2019-03-13T19:54:50.986Z,99.90
2019-03-13T19:57:23.673Z,99.90
2019-03-13T19:59:56.853Z,99.90
2019-03-13T20:02:29.904Z,99.90
2019-03-13T20:05:03.563Z,99.90
2019-03-13T20:07:36.880Z,99.90
2019-03-13T20:10:09.678Z,99.90
2019-03-13T20:12:42.623Z,99.90
2019-03-13T20:15:15.485Z,99.90
2019-03-13T20:17:48.473Z,99.90
2019-03-13T20:20:21.175Z,99.90
2019-03-13T20:22:56.971Z,99.90
2019-03-13T20:25:29.142Z,99.90
2019-03-13T20:28:02.446Z,99.90
2019-03-13T20:30:35.439Z,99.90
2019-03-13T20:33:08.182Z,99.90
2019-03-13T20:35:41.175Z,99.90
2019-03-13T20:38:13.972Z,99.90
2019-03-13T20:40:46.894Z,99.90
2019-03-13T20:43:19.766Z,99.90
2019-03-13T20:45:52.843Z,99.90
2019-03-13T20:48:25.664Z,99.90
2019-03-13T20:50:58.774Z,99.90
2019-03-13T20:53:31.614Z,99.90
2019-03-13T20:56:05.571Z,99.90
2019-03-13T20:58:38.393Z,99.90
2019-03-13T21:01:11.274Z,99.90
2019-03-13T21:03:45.806Z,99.90
2019-03-13T21:06:18.744Z,99.90
2019-03-13T21:08:54.263Z,99.90
2019-03-13T21:11:26.213Z,99.90
2019-03-13T21:13:59.264Z,99.90
2019-03-13T21:16:32.323Z,99.90
2019-03-13T21:19:05.950Z,99.90
2019-03-13T21:21:40.077Z,99.90
2019-03-13T21:24:13.181Z,99.90
2019-03-13T21:26:49.109Z,99.90
2019-03-13T21:29:20.884Z,99.90
2019-03-13T21:31:53.975Z,99.90
2019-03-13T21:34:28.446Z,99.90
2019-03-13T21:37:01.794Z,99.90
2019-03-13T21:39:34.785Z,99.90
2019-03-13T21:42:07.501Z,99.90
2019-03-13T21:44:40.604Z,99.90
2019-03-13T21:47:13.412Z,99.90
2019-03-13T21:49:46.503Z,99.90
2019-03-13T21:52:19.354Z,99.90
2019-03-13T21:54:52.459Z,99.90
2019-03-13T21:57:25.893Z,99.90
2019-03-13T21:59:58.945Z,99.90
2019-03-13T22:02:33.100Z,99.90
2019-03-13T22:05:06.100Z,99.90
2019-03-13T22:07:39.006Z,99.90
2019-03-13T22:10:11.893Z,99.90
2019-03-13T22:12:44.903Z,99.90
2019-03-13T22:15:17.743Z,99.90
2019-03-13T22:17:50.674Z,99.90
2019-03-13T22:20:23.594Z,99.90
2019-03-13T22:22:56.557Z,99.90
2019-03-13T22:25:29.395Z,99.90
2019-03-13T22:28:02.464Z,99.90
2019-03-13T22:30:35.274Z,99.90
2019-03-13T22:33:07.936Z,99.90
2019-03-13T22:35:40.833Z,99.90
2019-03-13T22:38:13.673Z,99.90
2019-03-13T22:40:46.564Z,99.90
2019-03-13T22:43:19.414Z,99.90
2019-03-13T22:45:52.394Z,99.90
2019-03-13T22:48:25.293Z,99.90
2019-03-13T22:50:58.212Z,99.90
2019-03-13T22:53:31.063Z,99.90
2019-03-13T22:56:04.751Z,99.90
2019-03-13T22:58:37.641Z,99.90
2019-03-13T23:01:13.238Z,99.90
2019-03-13T23:03:46.204Z,99.90
2019-03-13T23:06:19.034Z,99.90
2019-03-13T23:08:52.043Z,99.90
2019-03-13T23:11:24.882Z,99.90
2019-03-13T23:13:57.894Z,99.90
2019-03-13T23:16:30.723Z,99.90
2019-03-13T23:19:04.377Z,99.90
2019-03-13T23:21:37.394Z,99.90
2019-03-13T23:24:10.724Z,99.90
2019-03-13T23:26:43.755Z,99.90
2019-03-13T23:29:16.670Z,99.90
2019-03-13T23:31:49.563Z,99.90
2019-03-13T23:34:22.464Z,99.90
2019-03-13T23:36:55.435Z,99.90
2019-03-13T23:39:28.293Z,99.90
2019-03-13T23:42:01.255Z,99.90
2019-03-13T23:44:35.803Z,99.90
2019-03-13T23:47:08.540Z,99.90
2019-03-13T23:49:41.423Z,99.90
2019-03-13T23:52:14.273Z,99.90
2019-03-13T23:54:47.193Z,99.90
2019-03-13T23:57:20.013Z,99.90
2019-03-13T23:59:52.968Z,99.90
